sensor_id;sensor_type;location;lat;lon;timestamp;P1;durP1;ratioP1;P2;durP2;ratioP2
32780;SDS011;19136;47.032;15.502;2024-01-10T00:01:48;20.23;;;8.43;;
32780;SDS011;19136;47.032;15.502;2024-01-10T00:04:14;17.63;;;8.07;;
32780;SDS011;19136;47.032;15.502;2024-01-10T00:06:42;19.02;;;7.50;;
32780;SDS011;19136;47.032;15.502;2024-01-10T00:09:07;18.27;;;7.13;;
32780;SDS011;19136;47.032;15.502;2024-01-10T00:11:34;18.83;;;7.85;;
32780;SDS011;19136;47.032;15.502;2024-01-10T00:13:59;19.50;;;8.13;;
32780;SDS011;19136;47.032;15.502;2024-01-10T00:16:28;19.15;;;7.53;;
32780;SDS011;19136;47.032;15.502;2024-01-10T00:18:54;18.08;;;7.82;;
32780;SDS011;19136;47.032;15.502;2024-01-10T00:21:19;18.98;;;7.32;;
32780;SDS011;19136;47.032;15.502;2024-01-10T00:23:45;18.30;;;8.40;;
32780;SDS011;19136;47.032;15.502;2024-01-10T00:26:10;19.08;;;8.07;;
32780;SDS011;19136;47.032;15.502;2024-01-10T00:28:35;17.92;;;7.15;;
32780;SDS011;19136;47.032;15.502;2024-01-10T00:31:01;19.77;;;8.05;;
32780;SDS011;19136;47.032;15.502;2024-01-10T00:33:26;20.35;;;7.65;;
32780;SDS011;19136;47.032;15.502;2024-01-10T00:35:52;19.05;;;8.23;;
32780;SDS011;19136;47.032;15.502;2024-01-10T00:38:17;20.08;;;7.63;;
32780;SDS011;19136;47.032;15.502;2024-01-10T00:40:43;18.45;;;7.80;;
32780;SDS011;19136;47.032;15.502;2024-01-10T00:43:08;20.23;;;8.15;;
32780;SDS011;19136;47.032;15.502;2024-01-10T00:45:34;25.27;;;8.05;;
32780;SDS011;19136;47.032;15.502;2024-01-10T00:47:59;18.42;;;7.63;;
32780;SDS011;19136;47.032;15.502;2024-01-10T00:50:25;25.13;;;7.68;;
32780;SDS011;19136;47.032;15.502;2024-01-10T00:52:50;20.75;;;8.32;;
32780;SDS011;19136;47.032;15.502;2024-01-10T00:55:17;17.30;;;7.85;;
32780;SDS011;19136;47.032;15.502;2024-01-10T00:57:46;16.70;;;7.38;;
32780;SDS011;19136;47.032;15.502;2024-01-10T01:00:12;22.05;;;8.15;;
32780;SDS011;19136;47.032;15.502;2024-01-10T01:02:38;19.13;;;7.85;;
32780;SDS011;19136;47.032;15.502;2024-01-10T01:05:07;22.83;;;8.13;;
32780;SDS011;19136;47.032;15.502;2024-01-10T01:07:34;15.90;;;7.30;;
32780;SDS011;19136;47.032;15.502;2024-01-10T01:10:00;18.75;;;7.95;;
32780;SDS011;19136;47.032;15.502;2024-01-10T01:12:26;19.52;;;7.47;;
32780;SDS011;19136;47.032;15.502;2024-01-10T01:14:52;22.48;;;7.63;;
32780;SDS011;19136;47.032;15.502;2024-01-10T01:17:18;18.85;;;7.93;;
32780;SDS011;19136;47.032;15.502;2024-01-10T01:19:44;15.48;;;7.20;;
32780;SDS011;19136;47.032;15.502;2024-01-10T01:22:10;17.77;;;7.38;;
32780;SDS011;19136;47.032;15.502;2024-01-10T01:24:36;20.35;;;7.95;;
32780;SDS011;19136;47.032;15.502;2024-01-10T01:27:02;16.85;;;7.38;;
32780;SDS011;19136;47.032;15.502;2024-01-10T01:29:28;21.48;;;7.72;;
32780;SDS011;19136;47.032;15.502;2024-01-10T01:31:54;23.88;;;7.78;;
32780;SDS011;19136;47.032;15.502;2024-01-10T01:34:20;17.27;;;7.40;;
32780;SDS011;19136;47.032;15.502;2024-01-10T01:36:46;19.98;;;7.82;;
32780;SDS011;19136;47.032;15.502;2024-01-10T01:39:12;15.13;;;7.20;;
32780;SDS011;19136;47.032;15.502;2024-01-10T01:41:41;17.83;;;7.40;;
32780;SDS011;19136;47.032;15.502;2024-01-10T01:44:07;21.42;;;7.95;;
32780;SDS011;19136;47.032;15.502;2024-01-10T01:46:33;18.25;;;7.53;;
32780;SDS011;19136;47.032;15.502;2024-01-10T01:48:59;21.27;;;8.15;;
32780;SDS011;19136;47.032;15.502;2024-01-10T01:51:26;20.45;;;7.45;;
32780;SDS011;19136;47.032;15.502;2024-01-10T01:53:54;19.35;;;7.30;;
32780;SDS011;19136;47.032;15.502;2024-01-10T01:56:20;22.38;;;8.05;;
32780;SDS011;19136;47.032;15.502;2024-01-10T01:59:04;18.77;;;8.00;;
32780;SDS011;19136;47.032;15.502;2024-01-10T02:04:15;17.88;;;7.40;;
32780;SDS011;19136;47.032;15.502;2024-01-10T02:06:40;19.50;;;7.32;;
32780;SDS011;19136;47.032;15.502;2024-01-10T02:09:06;23.38;;;8.02;;
32780;SDS011;19136;47.032;15.502;2024-01-10T02:11:31;16.10;;;7.97;;
32780;SDS011;19136;47.032;15.502;2024-01-10T02:13:57;16.30;;;7.47;;
32780;SDS011;19136;47.032;15.502;2024-01-10T02:16:23;20.15;;;8.27;;
32780;SDS011;19136;47.032;15.502;2024-01-10T02:18:49;19.38;;;9.05;;
32780;SDS011;19136;47.032;15.502;2024-01-10T02:21:16;18.58;;;7.80;;
32780;SDS011;19136;47.032;15.502;2024-01-10T02:23:41;17.58;;;7.25;;
32780;SDS011;19136;47.032;15.502;2024-01-10T02:26:07;19.90;;;7.70;;
32780;SDS011;19136;47.032;15.502;2024-01-10T02:28:32;21.60;;;8.27;;
32780;SDS011;19136;47.032;15.502;2024-01-10T02:30:58;20.42;;;7.72;;
32780;SDS011;19136;47.032;15.502;2024-01-10T02:33:24;15.25;;;6.95;;
32780;SDS011;19136;47.032;15.502;2024-01-10T02:35:50;17.85;;;7.97;;
32780;SDS011;19136;47.032;15.502;2024-01-10T02:38:16;18.90;;;7.70;;
32780;SDS011;19136;47.032;15.502;2024-01-10T02:40:41;17.58;;;6.97;;
32780;SDS011;19136;47.032;15.502;2024-01-10T02:43:07;20.80;;;7.88;;
32780;SDS011;19136;47.032;15.502;2024-01-10T02:45:33;14.73;;;6.72;;
32780;SDS011;19136;47.032;15.502;2024-01-10T02:47:59;20.30;;;7.47;;
32780;SDS011;19136;47.032;15.502;2024-01-10T02:50:24;17.83;;;7.95;;
32780;SDS011;19136;47.032;15.502;2024-01-10T02:52:50;16.83;;;7.30;;
32780;SDS011;19136;47.032;15.502;2024-01-10T02:55:15;18.17;;;8.00;;
32780;SDS011;19136;47.032;15.502;2024-01-10T02:57:40;26.05;;;9.85;;
32780;SDS011;19136;47.032;15.502;2024-01-10T03:00:06;18.92;;;8.57;;
32780;SDS011;19136;47.032;15.502;2024-01-10T03:02:32;24.05;;;8.80;;
32780;SDS011;19136;47.032;15.502;2024-01-10T03:04:58;34.58;;;10.35;;
32780;SDS011;19136;47.032;15.502;2024-01-10T03:07:23;26.13;;;10.07;;
32780;SDS011;19136;47.032;15.502;2024-01-10T03:09:50;28.58;;;10.18;;
32780;SDS011;19136;47.032;15.502;2024-01-10T03:12:15;28.13;;;10.27;;
32780;SDS011;19136;47.032;15.502;2024-01-10T03:14:41;22.83;;;9.23;;
32780;SDS011;19136;47.032;15.502;2024-01-10T03:17:07;17.00;;;8.18;;
32780;SDS011;19136;47.032;15.502;2024-01-10T03:19:32;19.45;;;8.15;;
32780;SDS011;19136;47.032;15.502;2024-01-10T03:21:58;21.98;;;8.10;;
32780;SDS011;19136;47.032;15.502;2024-01-10T03:24:25;21.35;;;7.88;;
32780;SDS011;19136;47.032;15.502;2024-01-10T03:26:52;18.67;;;7.00;;
32780;SDS011;19136;47.032;15.502;2024-01-10T03:29:17;19.52;;;8.45;;
32780;SDS011;19136;47.032;15.502;2024-01-10T03:31:43;21.10;;;8.45;;
32780;SDS011;19136;47.032;15.502;2024-01-10T03:34:08;20.73;;;8.40;;
32780;SDS011;19136;47.032;15.502;2024-01-10T03:36:34;17.35;;;7.57;;
32780;SDS011;19136;47.032;15.502;2024-01-10T03:38:59;17.65;;;7.45;;
32780;SDS011;19136;47.032;15.502;2024-01-10T03:41:25;19.17;;;7.97;;
32780;SDS011;19136;47.032;15.502;2024-01-10T03:43:51;21.60;;;7.65;;
32780;SDS011;19136;47.032;15.502;2024-01-10T03:46:16;15.98;;;7.88;;
32780;SDS011;19136;47.032;15.502;2024-01-10T03:48:43;20.35;;;7.80;;
32780;SDS011;19136;47.032;15.502;2024-01-10T03:51:17;22.55;;;9.50;;
32780;SDS011;19136;47.032;15.502;2024-01-10T03:53:43;20.42;;;7.85;;
32780;SDS011;19136;47.032;15.502;2024-01-10T03:56:09;20.67;;;8.45;;
32780;SDS011;19136;47.032;15.502;2024-01-10T03:58:34;19.48;;;7.90;;
32780;SDS011;19136;47.032;15.502;2024-01-10T04:01:03;19.13;;;8.15;;
32780;SDS011;19136;47.032;15.502;2024-01-10T04:03:29;19.90;;;8.07;;
32780;SDS011;19136;47.032;15.502;2024-01-10T04:05:54;21.95;;;8.95;;
32780;SDS011;19136;47.032;15.502;2024-01-10T04:08:20;20.75;;;8.15;;
32780;SDS011;19136;47.032;15.502;2024-01-10T04:10:45;21.98;;;8.50;;
32780;SDS011;19136;47.032;15.502;2024-01-10T04:13:11;18.35;;;8.40;;
32780;SDS011;19136;47.032;15.502;2024-01-10T04:15:36;24.00;;;7.80;;
32780;SDS011;19136;47.032;15.502;2024-01-10T04:18:02;20.92;;;8.35;;
32780;SDS011;19136;47.032;15.502;2024-01-10T04:20:28;28.20;;;8.13;;
32780;SDS011;19136;47.032;15.502;2024-01-10T04:22:53;19.85;;;8.15;;
32780;SDS011;19136;47.032;15.502;2024-01-10T04:25:18;18.48;;;7.47;;
32780;SDS011;19136;47.032;15.502;2024-01-10T04:27:44;22.02;;;8.20;;
32780;SDS011;19136;47.032;15.502;2024-01-10T04:30:10;23.13;;;8.93;;
32780;SDS011;19136;47.032;15.502;2024-01-10T04:32:36;25.02;;;8.90;;
32780;SDS011;19136;47.032;15.502;2024-01-10T04:35:01;25.77;;;8.68;;
32780;SDS011;19136;47.032;15.502;2024-01-10T04:37:27;23.38;;;9.23;;
32780;SDS011;19136;47.032;15.502;2024-01-10T04:39:52;21.30;;;8.50;;
32780;SDS011;19136;47.032;15.502;2024-01-10T04:42:18;20.02;;;9.45;;
32780;SDS011;19136;47.032;15.502;2024-01-10T04:44:43;23.65;;;9.27;;
32780;SDS011;19136;47.032;15.502;2024-01-10T04:47:09;24.70;;;8.50;;
32780;SDS011;19136;47.032;15.502;2024-01-10T04:49:34;23.98;;;8.77;;
32780;SDS011;19136;47.032;15.502;2024-01-10T04:52:00;23.17;;;9.18;;
32780;SDS011;19136;47.032;15.502;2024-01-10T04:54:28;24.77;;;8.93;;
32780;SDS011;19136;47.032;15.502;2024-01-10T04:56:53;23.05;;;8.93;;
32780;SDS011;19136;47.032;15.502;2024-01-10T04:59:19;25.42;;;8.93;;
32780;SDS011;19136;47.032;15.502;2024-01-10T05:01:44;23.90;;;9.05;;
32780;SDS011;19136;47.032;15.502;2024-01-10T05:04:10;23.38;;;9.45;;
32780;SDS011;19136;47.032;15.502;2024-01-10T05:06:36;26.38;;;9.90;;
32780;SDS011;19136;47.032;15.502;2024-01-10T05:09:01;25.85;;;8.48;;
32780;SDS011;19136;47.032;15.502;2024-01-10T05:11:27;28.38;;;9.65;;
32780;SDS011;19136;47.032;15.502;2024-01-10T05:13:52;20.00;;;8.82;;
32780;SDS011;19136;47.032;15.502;2024-01-10T05:16:18;21.30;;;8.25;;
32780;SDS011;19136;47.032;15.502;2024-01-10T05:18:43;21.88;;;9.20;;
32780;SDS011;19136;47.032;15.502;2024-01-10T05:21:09;27.90;;;9.00;;
32780;SDS011;19136;47.032;15.502;2024-01-10T05:23:34;25.17;;;9.88;;
32780;SDS011;19136;47.032;15.502;2024-01-10T05:26:00;24.15;;;9.48;;
32780;SDS011;19136;47.032;15.502;2024-01-10T05:28:26;27.98;;;9.02;;
32780;SDS011;19136;47.032;15.502;2024-01-10T05:30:51;23.42;;;9.48;;
32780;SDS011;19136;47.032;15.502;2024-01-10T05:33:17;28.13;;;9.75;;
32780;SDS011;19136;47.032;15.502;2024-01-10T05:35:42;23.30;;;8.82;;
32780;SDS011;19136;47.032;15.502;2024-01-10T05:38:08;25.38;;;9.15;;
32780;SDS011;19136;47.032;15.502;2024-01-10T05:40:33;23.00;;;8.95;;
32780;SDS011;19136;47.032;15.502;2024-01-10T05:42:59;25.25;;;8.93;;
32780;SDS011;19136;47.032;15.502;2024-01-10T05:45:25;24.20;;;9.13;;
32780;SDS011;19136;47.032;15.502;2024-01-10T05:47:50;33.05;;;10.27;;
32780;SDS011;19136;47.032;15.502;2024-01-10T05:50:15;24.67;;;9.85;;
32780;SDS011;19136;47.032;15.502;2024-01-10T05:52:41;23.83;;;9.38;;
32780;SDS011;19136;47.032;15.502;2024-01-10T05:55:07;27.50;;;10.38;;
32780;SDS011;19136;47.032;15.502;2024-01-10T05:57:34;27.40;;;9.50;;
32780;SDS011;19136;47.032;15.502;2024-01-10T06:00:00;29.88;;;9.77;;
32780;SDS011;19136;47.032;15.502;2024-01-10T06:02:25;35.97;;;10.18;;
32780;SDS011;19136;47.032;15.502;2024-01-10T06:04:50;37.55;;;10.38;;
32780;SDS011;19136;47.032;15.502;2024-01-10T06:07:16;28.98;;;10.45;;
32780;SDS011;19136;47.032;15.502;2024-01-10T06:09:41;30.38;;;9.23;;
32780;SDS011;19136;47.032;15.502;2024-01-10T06:12:09;28.33;;;10.25;;
32780;SDS011;19136;47.032;15.502;2024-01-10T06:14:34;24.17;;;9.52;;
32780;SDS011;19136;47.032;15.502;2024-01-10T06:16:59;27.13;;;10.00;;
32780;SDS011;19136;47.032;15.502;2024-01-10T06:19:26;28.40;;;10.15;;
32780;SDS011;19136;47.032;15.502;2024-01-10T06:21:51;24.05;;;9.52;;
32780;SDS011;19136;47.032;15.502;2024-01-10T06:24:17;21.85;;;10.10;;
32780;SDS011;19136;47.032;15.502;2024-01-10T06:26:43;29.15;;;10.35;;
32780;SDS011;19136;47.032;15.502;2024-01-10T06:29:08;28.50;;;10.88;;
32780;SDS011;19136;47.032;15.502;2024-01-10T06:31:34;27.55;;;10.18;;
32780;SDS011;19136;47.032;15.502;2024-01-10T06:33:59;32.10;;;11.02;;
32780;SDS011;19136;47.032;15.502;2024-01-10T06:36:24;26.23;;;10.18;;
32780;SDS011;19136;47.032;15.502;2024-01-10T06:38:50;27.13;;;9.35;;
32780;SDS011;19136;47.032;15.502;2024-01-10T06:41:16;28.88;;;10.52;;
32780;SDS011;19136;47.032;15.502;2024-01-10T06:43:41;31.17;;;10.38;;
32780;SDS011;19136;47.032;15.502;2024-01-10T06:46:06;31.88;;;10.70;;
32780;SDS011;19136;47.032;15.502;2024-01-10T06:48:32;29.73;;;9.30;;
32780;SDS011;19136;47.032;15.502;2024-01-10T06:50:58;28.55;;;10.75;;
32780;SDS011;19136;47.032;15.502;2024-01-10T06:53:24;37.10;;;12.52;;
32780;SDS011;19136;47.032;15.502;2024-01-10T06:55:49;34.47;;;11.75;;
32780;SDS011;19136;47.032;15.502;2024-01-10T06:58:15;39.25;;;11.90;;
32780;SDS011;19136;47.032;15.502;2024-01-10T07:00:40;28.13;;;10.93;;
32780;SDS011;19136;47.032;15.502;2024-01-10T07:03:06;30.70;;;11.60;;
32780;SDS011;19136;47.032;15.502;2024-01-10T07:05:33;28.60;;;11.48;;
32780;SDS011;19136;47.032;15.502;2024-01-10T07:07:59;23.95;;;9.68;;
32780;SDS011;19136;47.032;15.502;2024-01-10T07:10:30;33.08;;;10.68;;
32780;SDS011;19136;47.032;15.502;2024-01-10T07:12:56;34.53;;;11.07;;
32780;SDS011;19136;47.032;15.502;2024-01-10T07:15:22;37.53;;;11.15;;
32780;SDS011;19136;47.032;15.502;2024-01-10T07:17:48;32.55;;;11.38;;
32780;SDS011;19136;47.032;15.502;2024-01-10T07:20:14;41.47;;;11.32;;
32780;SDS011;19136;47.032;15.502;2024-01-10T07:22:39;36.00;;;12.30;;
32780;SDS011;19136;47.032;15.502;2024-01-10T07:25:09;27.98;;;10.63;;
32780;SDS011;19136;47.032;15.502;2024-01-10T07:27:35;31.50;;;10.57;;
32780;SDS011;19136;47.032;15.502;2024-01-10T07:30:05;34.90;;;11.32;;
32780;SDS011;19136;47.032;15.502;2024-01-10T07:32:36;31.25;;;11.32;;
32780;SDS011;19136;47.032;15.502;2024-01-10T07:35:02;36.55;;;11.30;;
32780;SDS011;19136;47.032;15.502;2024-01-10T07:37:27;28.00;;;11.20;;
32780;SDS011;19136;47.032;15.502;2024-01-10T07:39:53;39.25;;;11.10;;
32780;SDS011;19136;47.032;15.502;2024-01-10T07:42:19;42.85;;;13.52;;
32780;SDS011;19136;47.032;15.502;2024-01-10T07:44:45;30.55;;;12.45;;
32780;SDS011;19136;47.032;15.502;2024-01-10T07:47:10;31.02;;;11.20;;
32780;SDS011;19136;47.032;15.502;2024-01-10T07:49:35;37.55;;;10.73;;
32780;SDS011;19136;47.032;15.502;2024-01-10T07:52:02;29.80;;;11.05;;
32780;SDS011;19136;47.032;15.502;2024-01-10T07:54:29;28.73;;;11.02;;
32780;SDS011;19136;47.032;15.502;2024-01-10T07:56:57;35.78;;;11.00;;
32780;SDS011;19136;47.032;15.502;2024-01-10T07:59:23;29.23;;;11.13;;
32780;SDS011;19136;47.032;15.502;2024-01-10T08:01:56;28.25;;;11.35;;
32780;SDS011;19136;47.032;15.502;2024-01-10T08:04:24;29.77;;;10.90;;
32780;SDS011;19136;47.032;15.502;2024-01-10T08:06:49;35.72;;;10.98;;
32780;SDS011;19136;47.032;15.502;2024-01-10T08:09:15;29.92;;;10.20;;
32780;SDS011;19136;47.032;15.502;2024-01-10T08:11:40;28.17;;;10.55;;
32780;SDS011;19136;47.032;15.502;2024-01-10T08:14:06;29.83;;;11.55;;
32780;SDS011;19136;47.032;15.502;2024-01-10T08:16:31;30.63;;;11.50;;
32780;SDS011;19136;47.032;15.502;2024-01-10T08:18:57;34.08;;;11.73;;
32780;SDS011;19136;47.032;15.502;2024-01-10T08:21:24;29.30;;;11.57;;
32780;SDS011;19136;47.032;15.502;2024-01-10T08:23:50;31.33;;;11.38;;
32780;SDS011;19136;47.032;15.502;2024-01-10T08:26:15;30.70;;;11.48;;
32780;SDS011;19136;47.032;15.502;2024-01-10T08:28:41;33.88;;;12.52;;
32780;SDS011;19136;47.032;15.502;2024-01-10T08:31:07;28.05;;;12.02;;
32780;SDS011;19136;47.032;15.502;2024-01-10T08:33:33;33.67;;;12.63;;
32780;SDS011;19136;47.032;15.502;2024-01-10T08:35:59;29.25;;;12.15;;
32780;SDS011;19136;47.032;15.502;2024-01-10T08:38:24;29.17;;;12.48;;
32780;SDS011;19136;47.032;15.502;2024-01-10T08:40:49;28.45;;;12.98;;
32780;SDS011;19136;47.032;15.502;2024-01-10T08:43:15;27.83;;;11.93;;
32780;SDS011;19136;47.032;15.502;2024-01-10T08:45:40;32.72;;;13.75;;
32780;SDS011;19136;47.032;15.502;2024-01-10T08:48:06;30.95;;;12.38;;
32780;SDS011;19136;47.032;15.502;2024-01-10T08:50:35;30.30;;;12.77;;
32780;SDS011;19136;47.032;15.502;2024-01-10T08:53:01;37.08;;;12.18;;
32780;SDS011;19136;47.032;15.502;2024-01-10T08:55:30;50.85;;;21.48;;
32780;SDS011;19136;47.032;15.502;2024-01-10T08:57:56;48.40;;;18.80;;
32780;SDS011;19136;47.032;15.502;2024-01-10T09:00:22;34.08;;;15.02;;
32780;SDS011;19136;47.032;15.502;2024-01-10T09:02:47;31.10;;;13.65;;
32780;SDS011;19136;47.032;15.502;2024-01-10T09:05:13;31.67;;;14.15;;
32780;SDS011;19136;47.032;15.502;2024-01-10T09:07:38;40.10;;;15.82;;
32780;SDS011;19136;47.032;15.502;2024-01-10T09:10:04;36.33;;;15.55;;
32780;SDS011;19136;47.032;15.502;2024-01-10T09:12:30;33.70;;;13.75;;
32780;SDS011;19136;47.032;15.502;2024-01-10T09:14:56;33.63;;;14.23;;
32780;SDS011;19136;47.032;15.502;2024-01-10T09:17:21;35.53;;;13.55;;
32780;SDS011;19136;47.032;15.502;2024-01-10T09:19:47;30.08;;;14.60;;
32780;SDS011;19136;47.032;15.502;2024-01-10T09:22:12;36.72;;;13.98;;
32780;SDS011;19136;47.032;15.502;2024-01-10T09:24:38;32.17;;;14.18;;
32780;SDS011;19136;47.032;15.502;2024-01-10T09:27:04;36.10;;;14.40;;
32780;SDS011;19136;47.032;15.502;2024-01-10T09:29:30;32.28;;;13.50;;
32780;SDS011;19136;47.032;15.502;2024-01-10T09:31:56;29.42;;;12.52;;
32780;SDS011;19136;47.032;15.502;2024-01-10T09:34:22;28.38;;;12.23;;
32780;SDS011;19136;47.032;15.502;2024-01-10T09:36:47;27.48;;;12.98;;
32780;SDS011;19136;47.032;15.502;2024-01-10T09:39:13;37.05;;;13.20;;
32780;SDS011;19136;47.032;15.502;2024-01-10T09:41:48;33.47;;;12.38;;
32780;SDS011;19136;47.032;15.502;2024-01-10T09:44:15;28.73;;;12.57;;
32780;SDS011;19136;47.032;15.502;2024-01-10T09:46:47;36.50;;;13.13;;
32780;SDS011;19136;47.032;15.502;2024-01-10T09:49:13;33.83;;;13.93;;
32780;SDS011;19136;47.032;15.502;2024-01-10T09:51:39;30.67;;;13.05;;
32780;SDS011;19136;47.032;15.502;2024-01-10T09:54:04;31.90;;;14.00;;
32780;SDS011;19136;47.032;15.502;2024-01-10T09:56:30;38.03;;;14.23;;
32780;SDS011;19136;47.032;15.502;2024-01-10T09:58:56;38.78;;;13.45;;
32780;SDS011;19136;47.032;15.502;2024-01-10T10:01:23;29.25;;;13.95;;
32780;SDS011;19136;47.032;15.502;2024-01-10T10:03:49;36.13;;;14.23;;
32780;SDS011;19136;47.032;15.502;2024-01-10T10:06:15;33.05;;;13.85;;
32780;SDS011;19136;47.032;15.502;2024-01-10T10:08:40;26.58;;;12.45;;
32780;SDS011;19136;47.032;15.502;2024-01-10T10:11:07;29.58;;;11.93;;
32780;SDS011;19136;47.032;15.502;2024-01-10T10:13:36;25.50;;;11.48;;
32780;SDS011;19136;47.032;15.502;2024-01-10T10:16:07;27.38;;;12.30;;
32780;SDS011;19136;47.032;15.502;2024-01-10T10:18:34;32.60;;;13.32;;
32780;SDS011;19136;47.032;15.502;2024-01-10T10:21:06;22.85;;;11.70;;
32780;SDS011;19136;47.032;15.502;2024-01-10T10:23:31;30.48;;;13.85;;
32780;SDS011;19136;47.032;15.502;2024-01-10T10:25:57;31.83;;;13.35;;
32780;SDS011;19136;47.032;15.502;2024-01-10T10:28:27;25.45;;;13.15;;
32780;SDS011;19136;47.032;15.502;2024-01-10T10:30:53;28.73;;;12.52;;
32780;SDS011;19136;47.032;15.502;2024-01-10T10:33:19;34.50;;;13.63;;
32780;SDS011;19136;47.032;15.502;2024-01-10T10:35:44;30.20;;;14.07;;
32780;SDS011;19136;47.032;15.502;2024-01-10T10:38:10;25.48;;;12.68;;
32780;SDS011;19136;47.032;15.502;2024-01-10T10:40:36;28.42;;;13.75;;
32780;SDS011;19136;47.032;15.502;2024-01-10T10:43:01;32.20;;;13.38;;
32780;SDS011;19136;47.032;15.502;2024-01-10T10:45:29;25.13;;;13.02;;
32780;SDS011;19136;47.032;15.502;2024-01-10T10:47:57;24.60;;;11.77;;
32780;SDS011;19136;47.032;15.502;2024-01-10T10:50:22;33.75;;;12.35;;
32780;SDS011;19136;47.032;15.502;2024-01-10T10:52:48;25.67;;;12.98;;
32780;SDS011;19136;47.032;15.502;2024-01-10T10:55:17;28.45;;;13.48;;
32780;SDS011;19136;47.032;15.502;2024-01-10T10:57:47;29.20;;;13.90;;
32780;SDS011;19136;47.032;15.502;2024-01-10T11:00:18;27.00;;;12.52;;
32780;SDS011;19136;47.032;15.502;2024-01-10T11:02:44;26.15;;;12.52;;
32780;SDS011;19136;47.032;15.502;2024-01-10T11:05:10;29.73;;;13.65;;
32780;SDS011;19136;47.032;15.502;2024-01-10T11:07:39;26.10;;;12.45;;
32780;SDS011;19136;47.032;15.502;2024-01-10T11:10:06;32.03;;;13.18;;
32780;SDS011;19136;47.032;15.502;2024-01-10T11:12:39;28.20;;;14.25;;
32780;SDS011;19136;47.032;15.502;2024-01-10T11:20:43;27.33;;;12.60;;
32780;SDS011;19136;47.032;15.502;2024-01-10T11:25:57;30.08;;;12.15;;
32780;SDS011;19136;47.032;15.502;2024-01-10T11:28:24;24.95;;;12.00;;
32780;SDS011;19136;47.032;15.502;2024-01-10T11:30:50;26.50;;;13.68;;
32780;SDS011;19136;47.032;15.502;2024-01-10T11:33:33;27.88;;;12.88;;
32780;SDS011;19136;47.032;15.502;2024-01-10T11:36:32;26.42;;;13.68;;
32780;SDS011;19136;47.032;15.502;2024-01-10T11:41:22;30.60;;;13.25;;
32780;SDS011;19136;47.032;15.502;2024-01-10T11:46:32;27.13;;;12.55;;
32780;SDS011;19136;47.032;15.502;2024-01-10T11:48:58;26.70;;;12.68;;
32780;SDS011;19136;47.032;15.502;2024-01-10T11:51:24;25.52;;;12.18;;
32780;SDS011;19136;47.032;15.502;2024-01-10T11:53:49;26.83;;;12.90;;
32780;SDS011;19136;47.032;15.502;2024-01-10T11:56:16;26.63;;;11.23;;
32780;SDS011;19136;47.032;15.502;2024-01-10T12:01:37;25.92;;;12.02;;
32780;SDS011;19136;47.032;15.502;2024-01-10T12:04:03;23.58;;;11.02;;
32780;SDS011;19136;47.032;15.502;2024-01-10T12:06:29;23.27;;;10.88;;
32780;SDS011;19136;47.032;15.502;2024-01-10T12:08:55;20.92;;;10.82;;
32780;SDS011;19136;47.032;15.502;2024-01-10T12:11:20;21.05;;;10.55;;
32780;SDS011;19136;47.032;15.502;2024-01-10T12:13:46;21.42;;;10.93;;
32780;SDS011;19136;47.032;15.502;2024-01-10T12:16:13;25.38;;;11.75;;
32780;SDS011;19136;47.032;15.502;2024-01-10T12:18:39;23.40;;;11.38;;
32780;SDS011;19136;47.032;15.502;2024-01-10T12:21:05;22.40;;;11.75;;
32780;SDS011;19136;47.032;15.502;2024-01-10T12:23:30;19.58;;;11.35;;
32780;SDS011;19136;47.032;15.502;2024-01-10T12:25:57;26.13;;;11.95;;
32780;SDS011;19136;47.032;15.502;2024-01-10T12:28:23;22.85;;;12.02;;
32780;SDS011;19136;47.032;15.502;2024-01-10T12:30:49;25.25;;;11.63;;
32780;SDS011;19136;47.032;15.502;2024-01-10T12:33:15;28.23;;;11.75;;
32780;SDS011;19136;47.032;15.502;2024-01-10T12:35:40;22.60;;;11.73;;
32780;SDS011;19136;47.032;15.502;2024-01-10T12:38:10;23.55;;;12.52;;
32780;SDS011;19136;47.032;15.502;2024-01-10T12:40:36;25.52;;;12.20;;
32780;SDS011;19136;47.032;15.502;2024-01-10T12:43:04;21.67;;;11.25;;
32780;SDS011;19136;47.032;15.502;2024-01-10T12:45:30;21.33;;;10.45;;
32780;SDS011;19136;47.032;15.502;2024-01-10T12:47:59;18.48;;;9.18;;
32780;SDS011;19136;47.032;15.502;2024-01-10T12:50:24;21.40;;;9.63;;
32780;SDS011;19136;47.032;15.502;2024-01-10T12:52:51;27.98;;;12.23;;
32780;SDS011;19136;47.032;15.502;2024-01-10T12:55:16;18.80;;;10.77;;
32780;SDS011;19136;47.032;15.502;2024-01-10T12:57:43;16.92;;;8.75;;
32780;SDS011;19136;47.032;15.502;2024-01-10T13:00:08;19.27;;;9.48;;
32780;SDS011;19136;47.032;15.502;2024-01-10T13:02:35;19.05;;;9.98;;
32780;SDS011;19136;47.032;15.502;2024-01-10T13:05:05;15.55;;;7.70;;
32780;SDS011;19136;47.032;15.502;2024-01-10T13:07:35;15.55;;;6.90;;
32780;SDS011;19136;47.032;15.502;2024-01-10T13:10:00;11.32;;;4.57;;
32780;SDS011;19136;47.032;15.502;2024-01-10T13:12:26;8.13;;;4.97;;
32780;SDS011;19136;47.032;15.502;2024-01-10T13:14:52;11.77;;;5.35;;
32780;SDS011;19136;47.032;15.502;2024-01-10T13:17:18;16.77;;;6.78;;
32780;SDS011;19136;47.032;15.502;2024-01-10T13:19:45;15.75;;;5.30;;
32780;SDS011;19136;47.032;15.502;2024-01-10T13:22:13;8.73;;;4.80;;
32780;SDS011;19136;47.032;15.502;2024-01-10T13:24:41;11.10;;;4.78;;
32780;SDS011;19136;47.032;15.502;2024-01-10T13:27:07;10.82;;;5.63;;
32780;SDS011;19136;47.032;15.502;2024-01-10T13:29:34;12.27;;;6.13;;
32780;SDS011;19136;47.032;15.502;2024-01-10T13:32:02;12.00;;;6.10;;
32780;SDS011;19136;47.032;15.502;2024-01-10T13:34:28;11.60;;;6.15;;
32780;SDS011;19136;47.032;15.502;2024-01-10T13:36:53;12.27;;;6.47;;
32780;SDS011;19136;47.032;15.502;2024-01-10T13:39:18;12.10;;;6.10;;
32780;SDS011;19136;47.032;15.502;2024-01-10T13:41:44;15.40;;;6.68;;
32780;SDS011;19136;47.032;15.502;2024-01-10T13:44:09;18.17;;;7.15;;
32780;SDS011;19136;47.032;15.502;2024-01-10T13:46:35;16.10;;;7.70;;
32780;SDS011;19136;47.032;15.502;2024-01-10T13:49:00;17.45;;;7.82;;
32780;SDS011;19136;47.032;15.502;2024-01-10T13:51:26;17.08;;;8.18;;
32780;SDS011;19136;47.032;15.502;2024-01-10T13:53:52;22.42;;;8.27;;
32780;SDS011;19136;47.032;15.502;2024-01-10T13:56:17;14.77;;;7.65;;
32780;SDS011;19136;47.032;15.502;2024-01-10T13:58:42;19.67;;;7.45;;
32780;SDS011;19136;47.032;15.502;2024-01-10T14:01:08;13.98;;;7.20;;
32780;SDS011;19136;47.032;15.502;2024-01-10T14:03:34;18.75;;;8.73;;
32780;SDS011;19136;47.032;15.502;2024-01-10T14:05:59;20.65;;;8.27;;
32780;SDS011;19136;47.032;15.502;2024-01-10T14:08:25;15.75;;;8.02;;
32780;SDS011;19136;47.032;15.502;2024-01-10T14:10:51;19.20;;;8.30;;
32780;SDS011;19136;47.032;15.502;2024-01-10T14:13:16;22.05;;;9.20;;
32780;SDS011;19136;47.032;15.502;2024-01-10T14:15:43;22.40;;;9.93;;
32780;SDS011;19136;47.032;15.502;2024-01-10T14:18:08;16.08;;;8.05;;
32780;SDS011;19136;47.032;15.502;2024-01-10T14:20:34;14.60;;;7.57;;
32780;SDS011;19136;47.032;15.502;2024-01-10T14:23:01;18.40;;;8.68;;
32780;SDS011;19136;47.032;15.502;2024-01-10T14:25:26;17.35;;;8.32;;
32780;SDS011;19136;47.032;15.502;2024-01-10T14:27:52;21.35;;;10.02;;
32780;SDS011;19136;47.032;15.502;2024-01-10T14:30:17;20.42;;;8.25;;